Time;durP1;ratioP1;P1;durP2;ratioP2;P2;SDS_P1;SDS_P2;PMS_P1;PMS_P2;Temp;Humidity;BMP_temperature;BMP_pressure;BME280_temperature;BME280_humidity;BME280_pressure;Samples;Min_cycle;Max_cycle;Signal;HPM_P1;HPM_P2
2021/12/26 00:00:50;;;;;;;72.30;22.35;;;;;;;-13.56;81.09;98752.90;2151638;83;21046;-59
2021/12/26 00:03:50;;;;;;;64.22;23.27;;;;;;;-13.48;80.97;98754.02;2131358;84;20984;-61
2021/12/26 00:06:51;;;;;;;73.12;24.35;;;;;;;-13.47;80.55;98756.16;2148112;83;21526;-58
2021/12/26 00:09:51;;;;;;;67.25;22.45;;;;;;;-13.55;80.24;98762.20;2131752;84;21021;-58
2021/12/26 00:12:52;;;;;;;68.97;23.95;;;;;;;-13.63;80.21;98757.28;2148078;83;21031;-58
2021/12/26 00:15:52;;;;;;;66.60;22.58;;;;;;;-13.63;80.31;98760.69;2131628;84;20961;-58
2021/12/26 00:18:53;;;;;;;77.10;25.45;;;;;;;-13.67;79.98;98758.02;2147924;83;21076;-58
2021/12/26 00:21:54;;;;;;;77.00;23.62;;;;;;;-13.77;79.91;98750.11;2131129;84;21613;-58
2021/12/26 00:24:54;;;;;;;75.32;24.32;;;;;;;-13.74;80.32;98743.06;2147990;82;21070;-59
2021/12/26 00:27:55;;;;;;;82.05;26.50;;;;;;;-13.68;79.97;98748.30;2131434;84;21582;-58
2021/12/26 00:30:55;;;;;;;82.02;25.75;;;;;;;-13.84;79.80;98739.36;2147948;83;21015;-57
2021/12/26 00:33:56;;;;;;;84.58;25.77;;;;;;;-14.04;79.75;98728.98;2131458;84;21032;-60
2021/12/26 00:36:56;;;;;;;84.45;26.42;;;;;;;-13.87;80.47;98727.06;2148175;83;21018;-57
2021/12/26 00:39:58;;;;;;;86.57;29.60;;;;;;;-13.88;79.95;98726.59;2131516;84;21025;-58
2021/12/26 00:42:59;;;;;;;79.07;24.82;;;;;;;-13.99;79.90;98729.61;2147882;83;21026;-59
2021/12/26 00:46:00;;;;;;;67.45;20.77;;;;;;;-14.00;79.72;98734.19;2131457;84;21119;-58
2021/12/26 00:49:01;;;;;;;68.17;19.17;;;;;;;-14.15;79.65;98733.64;2148223;83;21478;-60
2021/12/26 00:52:01;;;;;;;95.62;27.93;;;;;;;-14.25;80.07;98739.16;2131435;84;21068;-57
2021/12/26 00:55:02;;;;;;;82.85;27.87;;;;;;;-14.15;79.99;98739.94;2148030;83;21031;-60
2021/12/26 00:58:02;;;;;;;82.27;26.48;;;;;;;-14.06;80.07;98741.55;2131441;84;20988;-62
2021/12/26 01:01:02;;;;;;;126.53;40.08;;;;;;;-14.11;79.84;98740.51;2147909;83;21523;-58
2021/12/26 01:04:03;;;;;;;174.35;55.80;;;;;;;-14.17;79.64;98743.67;2131032;84;21325;-58
2021/12/26 01:07:09;;;;;;;120.08;41.33;;;;;;;-14.32;79.44;98741.47;2148101;83;21023;-59
2021/12/26 01:10:06;;;;;;;82.40;27.40;;;;;;;-14.45;79.58;98739.28;2105226;84;21048;-59
2021/12/26 01:13:15;;;;;;;64.47;21.23;;;;;;;-14.34;80.46;98736.75;2148247;83;21482;-60
2021/12/26 01:16:10;;;;;;;76.47;22.15;;;;;;;-14.23;79.84;98740.09;2105511;84;20965;-59
2021/12/26 01:19:15;;;;;;;66.87;20.97;;;;;;;-14.52;79.34;98741.11;2148049;83;20999;-58
2021/12/26 01:22:15;;;;;;;79.90;23.25;;;;;;;-14.69;79.59;98741.39;2105832;84;21055;-59
2021/12/26 01:25:15;;;;;;;;;;;;;;;-14.75;79.79;98739.91;2150462;83;20993;-59
2021/12/26 01:28:17;;;;;;;95.15;29.00;;;;;;;-14.64;80.36;98737.78;2131674;84;20412;-60
2021/12/26 01:31:20;;;;;;;96.78;31.57;;;;;;;-14.35;80.43;98743.00;2148297;83;21030;-58
2021/12/26 01:34:20;;;;;;;106.97;30.50;;;;;;;-14.30;80.10;98737.33;2105413;84;20984;-60
2021/12/26 01:37:21;;;;;;;99.52;29.60;;;;;;;-14.29;79.68;98735.27;2147882;83;21542;-59
2021/12/26 01:40:21;;;;;;;104.15;28.65;;;;;;;-14.31;79.35;98734.38;2131434;84;20980;-62
2021/12/26 01:43:22;;;;;;;84.00;26.10;;;;;;;-14.37;79.24;98733.28;2148139;83;20993;-58
2021/12/26 01:46:22;;;;;;;92.42;29.20;;;;;;;-14.38;79.33;98741.63;2131222;84;21060;-58
2021/12/26 01:49:22;;;;;;;78.78;25.60;;;;;;;-14.41;79.20;98744.05;2148270;83;20975;-57
2021/12/26 01:52:23;;;;;;;80.95;25.08;;;;;;;-14.52;79.01;98743.25;2131181;84;21087;-58
2021/12/26 01:55:36;;;;;;;80.95;25.65;;;;;;;-14.58;78.75;98738.00;2148014;83;20996;-60
2021/12/26 01:58:26;;;;;;;78.37;25.30;;;;;;;-14.66;79.07;98727.65;2105543;84;20965;-62
2021/12/26 02:01:27;;;;;;;83.90;27.00;;;;;;;-14.64;78.91;98737.78;2150670;83;21027;-57
2021/12/26 02:04:28;;;;;;;80.95;25.82;;;;;;;-14.74;79.35;98732.78;2134816;83;21499;-57
2021/12/26 02:07:28;;;;;;;83.07;25.37;;;;;;;-14.69;79.43;98730.05;2154825;83;21458;-59
2021/12/26 02:10:29;;;;;;;86.67;28.12;;;;;;;-14.68;79.31;98733.04;2134420;83;21016;-59
2021/12/26 02:13:29;;;;;;;84.10;26.97;;;;;;;-14.54;79.37;98730.13;2154766;82;21117;-58
2021/12/26 02:16:30;;;;;;;81.60;25.43;;;;;;;-14.58;78.90;98738.38;2134918;83;20988;-59
2021/12/26 02:19:30;;;;;;;78.78;26.48;;;;;;;-14.66;78.90;98735.20;2154789;83;21043;-58
2021/12/26 02:22:32;;;;;;;84.30;25.07;;;;;;;-14.47;79.17;98738.38;2134946;83;21499;-61
2021/12/26 02:28:35;;;;;;;72.58;21.50;;;;;;;-14.63;78.42;98741.17;2111375;83;20113;-59
2021/12/26 02:31:36;;;;;;;71.90;22.27;;;;;;;-14.71;78.58;98737.97;2154662;83;20983;-59
2021/12/26 02:34:36;;;;;;;73.12;23.00;;;;;;;-14.80;78.61;98735.08;2134848;83;21562;-62
2021/12/26 02:37:37;;;;;;;67.00;21.55;;;;;;;-14.95;78.37;98745.44;2154869;83;20983;-59
2021/12/26 02:40:38;;;;;;;69.82;21.82;;;;;;;-15.09;78.36;98748.66;2134971;83;21048;-62
2021/12/26 02:43:38;;;;;;;71.50;24.60;;;;;;;-15.07;78.98;98748.31;2154433;83;21058;-61
2021/12/26 02:46:40;;;;;;;64.70;19.85;;;;;;;-15.14;78.61;98747.61;2134997;83;20977;-59
2021/12/26 02:49:41;;;;;;;;;;;;;;;-15.29;78.57;98746.61;2157387;83;21087;-60
2021/12/26 02:52:41;;;;;;;94.92;27.58;;;;;;;-15.36;78.62;98748.02;2135074;83;20101;-57
2021/12/26 02:55:41;;;;;;;86.22;27.80;;;;;;;-15.41;78.86;98744.84;2155004;83;21063;-57
2021/12/26 02:58:42;;;;;;;99.25;28.95;;;;;;;-15.44;78.91;98749.38;2135369;83;20968;-58
2021/12/26 03:01:42;;;;;;;71.62;24.25;;;;;;;-15.46;78.90;98750.95;2151320;83;21082;-58
2021/12/26 03:04:43;;;;;;;63.95;21.02;;;;;;;-15.43;78.93;98761.55;2131322;84;21848;-61
2021/12/26 03:07:44;;;;;;;73.10;21.62;;;;;;;-15.42;78.93;98760.76;2148039;83;21129;-61
2021/12/26 03:10:44;;;;;;;88.00;26.27;;;;;;;-15.31;79.05;98766.20;2131067;84;21075;-61
2021/12/26 03:13:45;;;;;;;61.40;19.35;;;;;;;-15.30;78.74;98764.16;2148190;83;20967;-62
2021/12/26 03:16:46;;;;;;;57.60;17.90;;;;;;;-15.27;78.90;98766.39;2131312;84;21069;-60
2021/12/26 03:19:47;;;;;;;56.18;16.67;;;;;;;-15.21;78.44;98767.92;2148506;83;21525;-61
2021/12/26 03:22:47;;;;;;;57.48;17.42;;;;;;;-15.13;78.89;98763.17;2131462;84;20996;-60
2021/12/26 03:25:48;;;;;;;56.70;16.73;;;;;;;-15.09;78.89;98770.47;2148465;83;21006;-62
2021/12/26 03:28:48;;;;;;;61.83;19.15;;;;;;;-15.09;78.59;98768.80;2131472;84;21005;-60
2021/12/26 03:31:49;;;;;;;65.37;19.57;;;;;;;-15.16;78.35;98777.75;2148083;83;21487;-59
2021/12/26 03:34:49;;;;;;;61.15;18.73;;;;;;;-15.23;78.27;98769.91;2131497;84;21531;-62
2021/12/26 03:37:50;;;;;;;52.50;17.05;;;;;;;-15.27;78.24;98769.31;2147787;83;21314;-61
2021/12/26 03:40:50;;;;;;;55.43;18.23;;;;;;;-15.27;78.36;98767.65;2131881;84;21052;-57
2021/12/26 03:43:51;;;;;;;61.58;18.90;;;;;;;-15.35;78.24;98772.79;2148139;83;20963;-64
2021/12/26 03:46:52;;;;;;;94.77;31.55;;;;;;;-15.42;78.28;98774.59;2131746;84;21013;-62
2021/12/26 03:49:53;;;;;;;71.30;21.25;;;;;;;-15.43;78.50;98774.97;2148045;83;21579;-60
2021/12/26 03:52:56;;;;;;;57.83;17.75;;;;;;;-15.40;78.35;98775.50;2131596;84;21008;-57
2021/12/26 03:55:56;;;;;;;54.73;18.50;;;;;;;-15.44;78.42;98774.91;2120120;83;21486;-57
2021/12/26 03:58:58;;;;;;;53.92;16.60;;;;;;;-15.42;78.39;98776.70;2131644;84;20993;-61
2021/12/26 04:01:58;;;;;;;;;;;;;;;-15.24;78.91;98778.24;2150480;83;21012;-57
2021/12/26 04:04:59;;;;;;;53.63;14.93;;;;;;;-15.19;78.20;98771.75;2131230;84;20482;-61
2021/12/26 04:07:59;;;;;;;59.98;17.02;;;;;;;-15.30;77.98;98777.59;2148241;83;21019;-62
2021/12/26 04:11:00;;;;;;;59.33;18.87;;;;;;;-15.45;77.77;98781.61;2131991;84;21055;-61
2021/12/26 04:14:00;;;;;;;47.13;15.65;;;;;;;-15.55;77.87;98783.28;2148569;83;20964;-64
2021/12/26 04:17:00;;;;;;;58.40;20.85;;;;;;;-15.67;77.70;98785.27;2131758;84;20981;-61
2021/12/26 04:20:01;;;;;;;77.72;22.75;;;;;;;-15.77;78.06;98789.05;2148376;83;20983;-58
2021/12/26 04:23:02;;;;;;;75.00;21.52;;;;;;;-15.80;78.15;98788.58;2131756;84;21491;-60
2021/12/26 04:26:03;;;;;;;79.00;20.88;;;;;;;-15.74;78.47;98787.54;2148028;83;21474;-62
2021/12/26 04:29:04;;;;;;;74.40;21.43;;;;;;;-15.54;78.57;98786.24;2131552;84;21083;-60
2021/12/26 04:32:04;;;;;;;61.75;17.65;;;;;;;-15.49;78.17;98783.94;2147942;83;21090;-60
2021/12/26 04:35:05;;;;;;;55.83;17.50;;;;;;;-15.48;78.12;98791.92;2131728;84;20973;-62
2021/12/26 04:38:06;;;;;;;44.05;12.98;;;;;;;-15.57;77.82;98793.66;2148089;83;21043;-60
2021/12/26 04:41:06;;;;;;;86.40;26.65;;;;;;;-15.68;77.62;98790.71;2131564;84;21072;-60
2021/12/26 04:44:07;;;;;;;94.23;29.70;;;;;;;-15.80;77.64;98796.13;2148539;83;20936;-59
2021/12/26 04:47:07;;;;;;;90.53;27.63;;;;;;;-15.80;77.86;98802.41;2131728;84;20957;-64
2021/12/26 04:50:10;;;;;;;66.02;21.02;;;;;;;-15.71;77.82;98804.42;2148054;83;21015;-63
2021/12/26 04:53:11;;;;;;;63.78;19.05;;;;;;;-15.69;77.68;98804.07;2105513;84;20993;-60
2021/12/26 04:56:11;;;;;;;60.17;19.75;;;;;;;-15.70;77.66;98800.70;2148236;83;21465;-60
2021/12/26 04:59:12;;;;;;;62.97;18.00;;;;;;;-15.68;77.62;98799.52;2131753;84;21100;-62
2021/12/26 05:02:12;;;;;;;54.93;17.27;;;;;;;-15.66;77.63;98802.94;2151444;83;20976;-58
2021/12/26 05:05:13;;;;;;;61.88;18.87;;;;;;;-15.68;77.29;98804.55;2134940;83;21052;-58
2021/12/26 05:08:13;;;;;;;59.73;17.37;;;;;;;-15.89;77.00;98810.38;2155194;83;21130;-59
2021/12/26 05:11:14;;;;;;;52.57;16.13;;;;;;;-15.98;77.24;98806.63;2135193;83;21012;-57
2021/12/26 05:14:15;;;;;;;63.47;18.33;;;;;;;-15.93;77.48;98811.44;2155039;83;21026;-59
2021/12/26 05:17:15;;;;;;;58.15;16.62;;;;;;;-15.81;77.66;98810.73;2134938;83;21454;-61
2021/12/26 05:20:18;;;;;;;47.90;14.53;;;;;;;-15.78;77.63;98813.78;2154942;83;21376;-59
2021/12/26 05:23:18;;;;;;;52.45;15.83;;;;;;;-15.79;77.45;98822.95;2110722;83;21012;-60
2021/12/26 05:26:19;;;;;;;57.83;17.83;;;;;;;-16.00;77.04;98825.42;2154703;83;21648;-60
2021/12/26 05:29:19;;;;;;;59.00;16.97;;;;;;;-15.85;78.31;98834.42;2135309;83;20965;-58
2021/12/26 05:32:20;;;;;;;60.00;17.12;;;;;;;-15.75;77.70;98832.33;2154896;83;21024;-62
2021/12/26 05:35:20;;;;;;;63.07;19.07;;;;;;;-15.94;77.12;98837.39;2135176;83;20996;-60
2021/12/26 05:38:21;;;;;;;51.17;16.37;;;;;;;-15.95;77.48;98838.17;2155176;83;20975;-59
2021/12/26 05:41:21;;;;;;;65.55;19.05;;;;;;;-16.09;77.21;98832.16;2134843;83;21024;-60
2021/12/26 05:44:22;;;;;;;69.80;21.40;;;;;;;-16.13;77.41;98836.57;2154996;83;21546;-62
2021/12/26 05:47:23;;;;;;;69.17;20.43;;;;;;;-16.07;77.52;98824.27;2135039;83;21324;-63
2021/12/26 05:50:23;;;;;;;52.53;18.43;;;;;;;-15.99;77.34;98830.03;2155301;83;21006;-61
2021/12/26 05:53:24;;;;;;;60.20;18.17;;;;;;;-16.00;77.37;98833.33;2134994;83;21158;-60
2021/12/26 05:56:24;;;;;;;60.40;17.02;;;;;;;-16.17;76.98;98827.55;2154784;83;20971;-62
2021/12/26 05:59:24;;;;;;;54.53;17.10;;;;;;;-16.16;77.20;98825.10;2135138;83;21536;-64
2021/12/26 06:02:25;;;;;;;58.40;18.20;;;;;;;-16.14;77.24;98827.72;2151692;83;21046;-60
2021/12/26 06:05:25;;;;;;;58.40;17.05;;;;;;;-16.09;77.39;98822.10;2131273;84;21028;-61
2021/12/26 06:08:26;;;;;;;61.67;18.63;;;;;;;-15.80;77.74;98826.29;2148371;83;21021;-61
2021/12/26 06:11:26;;;;;;;53.33;17.23;;;;;;;-15.77;77.12;98838.07;2131631;84;21024;-62
2021/12/26 06:14:27;;;;;;;56.57;19.47;;;;;;;-15.83;76.85;98844.98;2148224;83;21064;-62
2021/12/26 06:17:30;;;;;;;55.77;19.37;;;;;;;-15.90;76.77;98848.02;2131653;84;21491;-59
2021/12/26 06:20:30;;;;;;;52.67;16.27;;;;;;;-15.92;76.87;98852.13;2119761;83;21007;-60
2021/12/26 06:23:30;;;;;;;58.17;15.47;;;;;;;-15.92;76.79;98849.21;2131534;84;21503;-62
2021/12/26 06:26:31;;;;;;;71.17;17.63;;;;;;;-15.89;76.66;98849.34;2147893;83;21498;-61
2021/12/26 06:29:32;;;;;;;59.75;17.17;;;;;;;-15.96;76.60;98852.38;2131508;84;21044;-62
2021/12/26 06:32:32;;;;;;;49.30;15.10;;;;;;;-16.11;76.51;98856.34;2148141;83;21019;-59
2021/12/26 06:35:33;;;;;;;56.02;16.97;;;;;;;-16.23;76.91;98859.16;2131416;84;21067;-59
2021/12/26 06:38:34;;;;;;;59.70;18.23;;;;;;;-16.29;76.77;98864.29;2148165;83;21505;-59
2021/12/26 06:41:34;;;;;;;66.10;19.37;;;;;;;-16.29;77.09;98871.83;2131354;84;21103;-57
2021/12/26 06:44:35;;;;;;;58.60;18.03;;;;;;;-16.07;77.46;98874.53;2148246;83;21011;-57
2021/12/26 06:47:35;;;;;;;59.80;17.70;;;;;;;-15.95;77.11;98867.08;2131270;84;21044;-56
2021/12/26 06:50:36;;;;;;;58.50;16.83;;;;;;;-15.94;76.95;98867.55;2148122;83;21493;-61
2021/12/26 06:53:37;;;;;;;58.60;16.40;;;;;;;-15.96;76.77;98867.45;2131558;84;20993;-57
2021/12/26 06:56:37;;;;;;;56.35;18.23;;;;;;;-15.96;77.01;98861.17;2148288;83;21047;-58
2021/12/26 06:59:38;;;;;;;73.85;23.75;;;;;;;-15.76;76.98;98866.20;2131879;84;20973;-57
2021/12/26 07:02:40;;;;;;;81.60;25.65;;;;;;;-15.77;76.53;98871.64;2125215;82;21522;-61
2021/12/26 07:05:41;;;;;;;73.10;24.45;;;;;;;-15.75;76.35;98879.25;2135627;83;20953;-58
2021/12/26 07:08:41;;;;;;;79.77;25.07;;;;;;;-15.72;76.36;98884.41;2158798;82;21027;-60
2021/12/26 07:11:42;;;;;;;72.60;23.20;;;;;;;-15.74;76.21;98886.86;2135509;83;20961;-60
2021/12/26 07:14:42;;;;;;;85.27;28.97;;;;;;;-15.76;76.36;98883.39;2158753;82;21463;-60
2021/12/26 07:17:43;;;;;;;77.92;26.33;;;;;;;-15.74;76.13;98889.78;2135282;83;21120;-60
2021/12/26 07:20:43;;;;;;;70.92;24.87;;;;;;;-15.60;76.61;98895.39;2159049;82;21019;-62
2021/12/26 07:23:44;;;;;;;109.15;31.45;;;;;;;-15.41;76.70;98899.18;2135381;83;21101;-60
2021/12/26 07:26:44;;;;;;;69.27;24.20;;;;;;;-15.37;76.54;98906.07;2158796;82;20963;-59
2021/12/26 07:29:45;;;;;;;76.00;25.40;;;;;;;-15.25;76.57;98907.39;2135330;83;21663;-60
2021/12/26 07:32:45;;;;;;;76.72;24.98;;;;;;;-14.89;76.61;98903.44;2158365;82;20939;-60
2021/12/26 07:35:46;;;;;;;75.25;24.70;;;;;;;-14.93;75.81;98905.36;2135467;83;21044;-60
2021/12/26 07:38:47;;;;;;;79.12;26.90;;;;;;;-14.96;75.77;98906.09;2158565;82;21454;-61
2021/12/26 07:41:47;;;;;;;77.35;25.88;;;;;;;-14.82;76.30;98910.03;2135282;83;21000;-58
2021/12/26 07:44:48;;;;;;;77.50;25.80;;;;;;;-14.73;76.28;98913.73;2158343;82;21089;-57
2021/12/26 07:47:48;;;;;;;83.17;31.35;;;;;;;-14.66;76.41;98911.52;2135209;83;21028;-58
2021/12/26 07:50:49;;;;;;;83.62;29.00;;;;;;;-14.57;76.14;98914.77;2158501;82;21497;-58
2021/12/26 07:53:51;;;;;;;81.53;28.50;;;;;;;-14.35;76.20;98915.62;2135279;83;21550;-59
2021/12/26 07:56:51;;;;;;;;;;;;;;;-14.14;76.22;98908.89;2160969;82;21078;-61
2021/12/26 07:59:52;;;;;;;88.03;29.40;;;;;;;-13.93;76.28;98911.79;2135212;83;20098;-61
2021/12/26 08:02:52;;;;;;;73.42;27.48;;;;;;;-13.67;76.52;98906.86;2156908;81;21063;-59
2021/12/26 08:05:53;;;;;;;83.45;27.52;;;;;;;-13.31;76.48;98901.38;2135116;83;20988;-62
2021/12/26 08:08:54;;;;;;;82.22;29.23;;;;;;;-13.12;76.29;98897.40;2154866;83;21094;-60
2021/12/26 08:11:54;;;;;;;72.87;25.57;;;;;;;-12.82;76.44;98899.66;2134649;83;21031;-60
2021/12/26 08:14:55;;;;;;;78.47;30.13;;;;;;;-12.54;76.12;98898.88;2155249;82;21011;-57
2021/12/26 08:17:56;;;;;;;86.72;30.37;;;;;;;-12.28;76.26;98894.66;2134970;83;21091;-61
2021/12/26 08:20:57;;;;;;;111.05;40.73;;;;;;;-11.91;76.58;98900.81;2154832;83;21003;-57
2021/12/26 08:23:57;;;;;;;93.58;33.28;;;;;;;-11.66;76.25;98900.26;2134659;83;21523;-60
2021/12/26 08:26:58;;;;;;;92.00;34.50;;;;;;;-11.46;76.23;98899.95;2154965;83;20971;-61
2021/12/26 08:29:58;;;;;;;86.55;29.23;;;;;;;-11.12;76.05;98896.66;2134940;83;21004;-59
2021/12/26 08:33:04;;;;;;;77.80;28.35;;;;;;;-10.97;75.64;98903.83;2154399;83;20999;-60
2021/12/26 08:36:01;;;;;;;84.80;32.40;;;;;;;-10.71;76.26;98899.84;2111294;83;21004;-59
2021/12/26 08:39:03;;;;;;;87.37;30.88;;;;;;;-10.30;76.63;98898.28;2154567;83;21054;-61
2021/12/26 08:42:04;;;;;;;77.32;28.75;;;;;;;-9.79;76.63;98895.59;2134915;83;21024;-60
2021/12/26 08:45:04;;;;;;;98.67;35.38;;;;;;;-9.36;76.45;98893.52;2154853;83;21468;-61
2021/12/26 08:48:05;;;;;;;96.05;32.05;;;;;;;-9.20;75.74;98892.97;2134816;83;21001;-59
2021/12/26 08:51:06;;;;;;;97.27;36.85;;;;;;;-9.23;75.81;98892.49;2154789;83;21031;-62
2021/12/26 08:54:06;;;;;;;98.25;36.70;;;;;;;-9.15;75.72;98893.93;2134920;83;21092;-59
2021/12/26 08:57:07;;;;;;;99.05;35.75;;;;;;;-9.14;75.85;98892.23;2154909;83;20971;-57
2021/12/26 09:00:07;;;;;;;104.17;40.38;;;;;;;-9.11;75.99;98893.55;2134815;83;21045;-59
2021/12/26 09:03:08;;;;;;;111.65;38.95;;;;;;;-9.01;76.33;98889.51;2151663;83;21542;-58
2021/12/26 09:06:08;;;;;;;97.78;35.38;;;;;;;-8.79;76.53;98893.28;2131115;84;21605;-58
2021/12/26 09:09:11;;;;;;;106.43;39.43;;;;;;;-8.38;76.62;98887.58;2148273;83;21498;-62
2021/12/26 09:12:12;;;;;;;96.12;37.00;;;;;;;-8.18;76.46;98889.59;2131360;84;21033;-58
2021/12/26 09:15:12;;;;;;;97.22;36.33;;;;;;;-8.09;76.76;98884.62;2148023;83;21003;-58
2021/12/26 09:18:13;;;;;;;110.83;40.63;;;;;;;-7.88;76.63;98884.51;2131248;84;21020;-61
2021/12/26 09:21:14;;;;;;;130.90;48.13;;;;;;;-7.49;77.16;98878.22;2147996;83;20987;-59
2021/12/26 09:24:14;;;;;;;99.92;36.38;;;;;;;-6.99;77.36;98875.38;2131406;84;21515;-59
2021/12/26 09:27:14;;;;;;;87.75;34.60;;;;;;;-6.63;77.15;98868.91;2148032;83;20970;-57
2021/12/26 09:30:15;;;;;;;92.75;36.40;;;;;;;-6.35;77.01;98866.61;2131102;84;21036;-57
2021/12/26 09:33:19;;;;;;;86.10;34.50;;;;;;;-6.10;76.72;98863.79;2147679;83;21055;-57
2021/12/26 09:36:19;;;;;;;86.42;34.33;;;;;;;-5.95;76.64;98855.36;2105625;84;21061;-58
2021/12/26 09:39:21;;;;;;;85.37;33.50;;;;;;;-6.02;76.44;98856.60;2148528;83;21022;-58
2021/12/26 09:42:24;;;;;;;76.17;30.57;;;;;;;-5.87;76.76;98852.83;2131499;84;21068;-57
2021/12/26 09:45:25;;;;;;;77.78;30.92;;;;;;;-5.73;76.78;98856.75;2148185;83;20964;-57
2021/12/26 09:48:25;;;;;;;69.45;28.05;;;;;;;-5.37;77.25;98852.64;2131267;84;21491;-61
2021/12/26 09:51:26;;;;;;;62.78;24.15;;;;;;;-5.14;76.94;98850.55;2147833;83;20995;-58
2021/12/26 09:54:26;;;;;;;57.80;21.50;;;;;;;-4.81;77.21;98850.20;2131360;84;21052;-60
2021/12/26 09:57:28;;;;;;;52.85;20.25;;;;;;;-4.53;76.80;98855.77;2148136;83;20936;-59
2021/12/26 10:00:29;;;;;;;57.08;20.80;;;;;;;-4.32;76.51;98849.36;2105624;84;21047;-59
2021/12/26 10:03:34;;;;;;;55.92;20.70;;;;;;;-4.22;76.18;98845.97;2150859;83;21501;-59
2021/12/26 10:06:33;;;;;;;55.73;20.95;;;;;;;-4.24;76.43;98842.13;2110876;83;21025;-59
2021/12/26 10:09:33;;;;;;;55.15;19.70;;;;;;;-4.25;76.41;98840.41;2154645;83;21030;-58
2021/12/26 10:12:34;;;;;;;59.35;21.57;;;;;;;-4.07;76.58;98838.67;2134882;83;21087;-59
2021/12/26 10:15:34;;;;;;;54.18;20.12;;;;;;;-3.82;76.33;98842.05;2155010;83;20967;-59
2021/12/26 10:21:37;;;;;;;58.20;21.82;;;;;;;-3.79;76.96;98839.47;2128779;83;21494;-59
2021/12/26 10:24:38;;;;;;;57.62;22.10;;;;;;;-3.62;77.06;98846.23;2134892;83;21032;-59
2021/12/26 10:27:41;;;;;;;54.50;20.12;;;;;;;-3.58;75.57;98839.81;2154683;83;21091;-58
2021/12/26 10:30:41;;;;;;;51.25;18.90;;;;;;;-3.72;76.22;98837.72;2111328;83;20985;-58
2021/12/26 10:33:41;;;;;;;51.60;18.85;;;;;;;-3.64;75.89;98842.84;2155071;83;20968;-59
2021/12/26 10:36:41;;;;;;;48.48;17.20;;;;;;;-3.76;75.86;98842.46;2135322;83;21072;-58
2021/12/26 10:39:42;;;;;;;47.53;16.35;;;;;;;-3.86;75.91;98841.63;2154970;83;20975;-59
2021/12/26 10:42:44;;;;;;;41.83;14.70;;;;;;;-4.03;76.02;98846.78;2134834;83;21598;-57
2021/12/26 10:45:44;;;;;;;37.95;11.97;;;;;;;-4.03;76.55;98851.47;2155351;83;21002;-58
2021/12/26 10:48:44;;;;;;;38.55;13.93;;;;;;;-4.09;76.10;98839.95;2135171;83;20957;-57
2021/12/26 10:51:45;;;;;;;42.65;15.00;;;;;;;-4.03;75.43;98842.50;2154899;83;20943;-57
2021/12/26 10:54:46;;;;;;;44.42;16.17;;;;;;;-3.87;76.04;98838.19;2134832;83;21587;-58
2021/12/26 10:57:47;;;;;;;54.03;19.85;;;;;;;-3.75;75.91;98839.89;2154851;83;21501;-57
2021/12/26 11:00:47;;;;;;;69.15;28.67;;;;;;;-3.69;75.28;98836.45;2135124;83;21139;-58
2021/12/26 11:03:48;;;;;;;71.47;29.75;;;;;;;-3.69;74.77;98837.73;2151312;81;20991;-59
2021/12/26 11:06:48;;;;;;;80.07;34.65;;;;;;;-3.67;75.04;98840.70;2131543;84;21023;-57
2021/12/26 11:09:49;;;;;;;53.10;22.42;;;;;;;-3.58;75.34;98838.52;2148048;83;21499;-57
2021/12/26 11:12:49;;;;;;;67.42;27.98;;;;;;;-3.40;75.49;98838.05;2131423;84;20953;-57
2021/12/26 11:15:50;;;;;;;59.20;24.65;;;;;;;-3.29;75.42;98840.55;2148326;83;21010;-58
2021/12/26 11:18:51;;;;;;;72.58;30.23;;;;;;;-3.08;75.18;98848.14;2131653;84;21044;-58
2021/12/26 11:21:52;;;;;;;60.80;24.67;;;;;;;-3.01;74.78;98840.83;2147769;83;21062;-59
2021/12/26 11:24:53;;;;;;;80.32;30.00;;;;;;;-2.77;74.62;98842.83;2131672;84;21021;-58
2021/12/26 11:27:54;;;;;;;80.25;31.80;;;;;;;-2.65;74.40;98839.31;2148273;83;21004;-58
2021/12/26 11:30:55;;;;;;;74.82;31.48;;;;;;;-2.50;74.22;98829.34;2131495;84;21464;-57
2021/12/26 11:33:56;;;;;;;74.25;30.88;;;;;;;-2.36;74.02;98826.67;2147699;83;21003;-58
2021/12/26 11:36:57;;;;;;;80.12;32.67;;;;;;;-2.45;73.88;98829.73;2131870;84;21033;-58
2021/12/26 11:39:58;;;;;;;77.90;32.00;;;;;;;-2.53;73.59;98831.95;2148027;83;21035;-59
2021/12/26 11:42:58;;;;;;;74.47;30.53;;;;;;;-2.57;73.73;98840.13;2131308;84;21564;-57
2021/12/26 11:45:59;;;;;;;73.87;30.65;;;;;;;-2.53;73.80;98838.36;2148035;83;21011;-59
2021/12/26 11:49:01;;;;;;;68.78;27.82;;;;;;;-2.45;73.62;98832.30;2131867;84;20993;-58
2021/12/26 11:52:02;;;;;;;74.40;28.75;;;;;;;-2.12;73.14;98828.17;2120131;83;21004;-57
2021/12/26 11:55:02;;;;;;;68.92;27.17;;;;;;;-1.94;72.82;98831.84;2131413;84;21032;-58
2021/12/26 11:58:02;;;;;;;70.42;27.48;;;;;;;-1.88;72.84;98829.64;2148130;83;20947;-58
2021/12/26 12:01:03;;;;;;;68.20;25.60;;;;;;;-1.95;72.86;98821.13;2131367;84;21607;-60
2021/12/26 12:04:04;;;;;;;66.87;26.73;;;;;;;-2.02;72.79;98827.65;2151427;83;21011;-58
2021/12/26 12:07:04;;;;;;;63.90;24.50;;;;;;;-1.93;72.77;98832.23;2135242;83;20980;-58
2021/12/26 12:10:05;;;;;;;64.15;25.25;;;;;;;-1.78;72.80;98827.80;2155150;83;20999;-58
2021/12/26 12:13:05;;;;;;;65.45;25.17;;;;;;;-1.81;72.65;98822.28;2135086;83;20984;-58
2021/12/26 12:16:06;;;;;;;59.08;22.95;;;;;;;-1.89;72.61;98824.08;2155142;83;20979;-58
2021/12/26 12:19:07;;;;;;;58.98;23.47;;;;;;;-1.92;72.65;98824.11;2134567;83;21044;-58
2021/12/26 12:22:08;;;;;;;66.87;24.15;;;;;;;-1.80;72.70;98820.10;2154742;83;20991;-58
2021/12/26 12:25:08;;;;;;;62.40;23.70;;;;;;;-1.79;72.68;98818.41;2134974;83;21555;-58
2021/12/26 12:28:09;;;;;;;58.30;22.40;;;;;;;-1.98;72.21;98827.59;2154848;83;21517;-59
2021/12/26 12:31:10;;;;;;;58.87;23.40;;;;;;;-2.35;71.69;98828.38;2134864;83;21045;-58
2021/12/26 12:34:13;;;;;;;59.75;24.23;;;;;;;-2.49;72.33;98828.48;2154799;83;21023;-58
2021/12/26 12:37:14;;;;;;;66.40;24.07;;;;;;;-2.51;73.08;98819.95;2135036;83;21083;-60
2021/12/26 12:40:14;;;;;;;64.30;24.15;;;;;;;-2.53;73.45;98821.26;2154685;83;20963;-59
2021/12/26 12:43:15;;;;;;;64.65;24.10;;;;;;;-2.39;73.52;98812.57;2134758;83;21016;-59
2021/12/26 12:46:16;;;;;;;51.90;18.85;;;;;;;-2.30;73.56;98816.33;2154771;83;21118;-58
2021/12/26 12:49:17;;;;;;;49.20;17.77;;;;;;;-2.20;73.31;98808.95;2134996;83;21016;-58
2021/12/26 12:52:18;;;;;;;53.02;19.02;;;;;;;-2.06;72.92;98814.41;2154761;83;21034;-59
2021/12/26 12:55:18;;;;;;;44.55;15.43;;;;;;;-2.04;72.62;98808.80;2135191;83;21024;-58
2021/12/26 12:58:19;;;;;;;47.98;16.23;;;;;;;-2.00;72.69;98808.75;2154810;83;20987;-59
2021/12/26 13:01:20;;;;;;;43.23;15.83;;;;;;;-2.03;72.78;98807.50;2134583;83;21523;-58
2021/12/26 13:04:21;;;;;;;47.98;15.88;;;;;;;-1.95;73.04;98815.16;2154791;83;21008;-58
2021/12/26 13:07:22;;;;;;;48.42;16.07;;;;;;;-2.10;73.03;98819.58;2135029;83;21491;-58
2021/12/26 13:10:23;;;;;;;47.15;16.30;;;;;;;-2.15;73.25;98813.63;2154870;83;20935;-59
2021/12/26 13:13:23;;;;;;;46.15;17.10;;;;;;;-2.06;73.93;98815.69;2135009;83;21062;-59
2021/12/26 13:16:24;;;;;;;47.75;17.23;;;;;;;-2.20;73.12;98815.38;2154965;83;21031;-58
2021/12/26 13:19:24;;;;;;;48.20;16.97;;;;;;;-2.43;73.44;98816.88;2135060;83;21075;-58
2021/12/26 13:22:25;;;;;;;44.03;15.98;;;;;;;-2.60;73.46;98815.75;2154686;83;20995;-58
2021/12/26 13:25:26;;;;;;;42.95;15.25;;;;;;;-2.62;73.53;98816.17;2134724;83;21028;-59
2021/12/26 13:28:27;;;;;;;47.95;16.95;;;;;;;-2.50;73.82;98813.93;2154862;82;20979;-58
2021/12/26 13:31:28;;;;;;;46.05;15.70;;;;;;;-2.39;73.78;98819.83;2134765;83;21546;-58
2021/12/26 13:34:29;;;;;;;44.80;15.45;;;;;;;-2.46;73.99;98822.91;2154509;83;21569;-58
2021/12/26 13:37:29;;;;;;;48.48;16.50;;;;;;;-2.51;73.84;98825.09;2134803;83;20975;-58
2021/12/26 13:40:30;;;;;;;51.95;16.45;;;;;;;-2.68;73.92;98831.64;2154521;83;21049;-59
2021/12/26 13:43:30;;;;;;;47.05;16.27;;;;;;;-2.72;74.30;98838.94;2134672;83;21064;-58
2021/12/26 13:46:35;;;;;;;54.93;18.75;;;;;;;-2.77;74.48;98837.70;2154820;83;21015;-58
2021/12/26 13:49:33;;;;;;;72.67;27.62;;;;;;;-2.81;74.58;98834.28;2111209;83;21622;-59